sensor_id;sensor_type;location;lat;lon;timestamp;temperature;humidity
51837;DHT22;38941;53.254;6.600;2023-04-25T00:01:07;7.00;99.90
51837;DHT22;38941;53.254;6.600;2023-04-25T00:03:09;7.00;99.90
51837;DHT22;38941;53.254;6.600;2023-04-25T00:05:10;7.10;99.90
51837;DHT22;38941;53.254;6.600;2023-04-25T00:07:12;7.00;99.90
51837;DHT22;38941;53.254;6.600;2023-04-25T00:09:15;7.00;99.90
51837;DHT22;38941;53.254;6.600;2023-04-25T00:11:16;7.30;99.90
51837;DHT22;38941;53.254;6.600;2023-04-25T00:13:17;7.00;99.90
51837;DHT22;38941;53.254;6.600;2023-04-25T00:15:19;7.10;99.90
51837;DHT22;38941;53.254;6.600;2023-04-25T00:17:22;7.00;99.90
51837;DHT22;38941;53.254;6.600;2023-04-25T00:19:24;6.90;99.90
51837;DHT22;38941;53.254;6.600;2023-04-25T00:21:27;6.90;99.90
51837;DHT22;38941;53.254;6.600;2023-04-25T00:23:28;6.90;99.90
51837;DHT22;38941;53.254;6.600;2023-04-25T00:25:29;6.90;99.90
51837;DHT22;38941;53.254;6.600;2023-04-25T00:27:30;7.40;99.90
51837;DHT22;38941;53.254;6.600;2023-04-25T00:29:31;6.90;99.90
51837;DHT22;38941;53.254;6.600;2023-04-25T00:31:32;6.80;99.90
51837;DHT22;38941;53.254;6.600;2023-04-25T00:33:33;6.80;99.90
51837;DHT22;38941;53.254;6.600;2023-04-25T00:35:35;7.30;99.90
51837;DHT22;38941;53.254;6.600;2023-04-25T00:37:37;6.60;99.90
51837;DHT22;38941;53.254;6.600;2023-04-25T00:39:39;6.60;99.90
51837;DHT22;38941;53.254;6.600;2023-04-25T00:41:41;6.60;99.90
51837;DHT22;38941;53.254;6.600;2023-04-25T00:43:44;6.60;99.90
51837;DHT22;38941;53.254;6.600;2023-04-25T00:45:47;7.10;99.90
51837;DHT22;38941;53.254;6.600;2023-04-25T00:47:50;6.60;99.90
51837;DHT22;38941;53.254;6.600;2023-04-25T00:49:51;7.10;99.90
51837;DHT22;38941;53.254;6.600;2023-04-25T00:51:56;6.60;99.90
51837;DHT22;38941;53.254;6.600;2023-04-25T00:53:58;7.10;99.90
51837;DHT22;38941;53.254;6.600;2023-04-25T00:55:59;6.50;99.90
51837;DHT22;38941;53.254;6.600;2023-04-25T00:58:00;6.60;99.90
51837;DHT22;38941;53.254;6.600;2023-04-25T01:00:02;6.60;99.90
51837;DHT22;38941;53.254;6.600;2023-04-25T01:02:04;6.50;99.90
51837;DHT22;38941;53.254;6.600;2023-04-25T01:04:06;6.50;99.90
51837;DHT22;38941;53.254;6.600;2023-04-25T01:06:08;6.50;99.90
51837;DHT22;38941;53.254;6.600;2023-04-25T01:08:10;7.00;99.90
51837;DHT22;38941;53.254;6.600;2023-04-25T01:10:12;6.90;99.90
51837;DHT22;38941;53.254;6.600;2023-04-25T01:12:14;6.50;99.90
51837;DHT22;38941;53.254;6.600;2023-04-25T01:14:16;6.50;99.90
51837;DHT22;38941;53.254;6.600;2023-04-25T01:16:18;6.50;99.90
51837;DHT22;38941;53.254;6.600;2023-04-25T01:18:20;6.50;99.90
51837;DHT22;38941;53.254;6.600;2023-04-25T01:20:22;6.50;99.90
51837;DHT22;38941;53.254;6.600;2023-04-25T01:22:27;6.40;99.90
51837;DHT22;38941;53.254;6.600;2023-04-25T01:24:31;6.70;99.90
51837;DHT22;38941;53.254;6.600;2023-04-25T01:26:32;6.50;99.90
51837;DHT22;38941;53.254;6.600;2023-04-25T01:28:34;6.40;99.90
51837;DHT22;38941;53.254;6.600;2023-04-25T01:30:36;7.10;99.90
51837;DHT22;38941;53.254;6.600;2023-04-25T01:32:39;6.50;99.90
51837;DHT22;38941;53.254;6.600;2023-04-25T01:34:40;6.90;99.90
51837;DHT22;38941;53.254;6.600;2023-04-25T01:36:41;5.90;99.90
51837;DHT22;38941;53.254;6.600;2023-04-25T01:38:42;6.40;99.90
51837;DHT22;38941;53.254;6.600;2023-04-25T01:40:45;6.90;99.90
51837;DHT22;38941;53.254;6.600;2023-04-25T01:42:47;6.90;99.90
51837;DHT22;38941;53.254;6.600;2023-04-25T01:44:49;6.40;99.90
51837;DHT22;38941;53.254;6.600;2023-04-25T01:46:51;6.30;99.90
51837;DHT22;38941;53.254;6.600;2023-04-25T01:48:52;6.40;99.90
51837;DHT22;38941;53.254;6.600;2023-04-25T01:50:54;5.60;99.90
51837;DHT22;38941;53.254;6.600;2023-04-25T01:52:56;6.30;99.90
51837;DHT22;38941;53.254;6.600;2023-04-25T01:55:00;6.40;99.90
51837;DHT22;38941;53.254;6.600;2023-04-25T01:57:01;6.40;99.90
51837;DHT22;38941;53.254;6.600;2023-04-25T01:59:04;5.60;99.90
51837;DHT22;38941;53.254;6.600;2023-04-25T02:01:06;6.40;99.90
51837;DHT22;38941;53.254;6.600;2023-04-25T02:03:08;6.40;99.90
51837;DHT22;38941;53.254;6.600;2023-04-25T02:05:09;6.90;99.90
51837;DHT22;38941;53.254;6.600;2023-04-25T02:07:09;6.30;99.90
51837;DHT22;38941;53.254;6.600;2023-04-25T02:11:12;6.30;99.90
51837;DHT22;38941;53.254;6.600;2023-04-25T02:13:13;6.30;99.90
51837;DHT22;38941;53.254;6.600;2023-04-25T02:15:14;6.20;99.90
51837;DHT22;38941;53.254;6.600;2023-04-25T02:17:16;6.10;99.90
51837;DHT22;38941;53.254;6.600;2023-04-25T02:21:19;6.10;99.90
51837;DHT22;38941;53.254;6.600;2023-04-25T02:23:20;6.00;99.90
51837;DHT22;38941;53.254;6.600;2023-04-25T02:25:22;6.00;99.90
51837;DHT22;38941;53.254;6.600;2023-04-25T02:27:23;6.00;99.90
51837;DHT22;38941;53.254;6.600;2023-04-25T02:29:25;5.90;99.90
51837;DHT22;38941;53.254;6.600;2023-04-25T02:31:25;5.90;99.90
51837;DHT22;38941;53.254;6.600;2023-04-25T02:33:28;5.90;99.90
51837;DHT22;38941;53.254;6.600;2023-04-25T02:35:30;5.90;99.90
51837;DHT22;38941;53.254;6.600;2023-04-25T02:37:31;5.90;99.90
51837;DHT22;38941;53.254;6.600;2023-04-25T02:39:33;5.90;99.90
51837;DHT22;38941;53.254;6.600;2023-04-25T02:41:37;5.90;99.90
51837;DHT22;38941;53.254;6.600;2023-04-25T02:43:37;5.90;99.90
51837;DHT22;38941;53.254;6.600;2023-04-25T02:45:39;6.60;99.90
51837;DHT22;38941;53.254;6.600;2023-04-25T02:47:41;5.90;99.90
51837;DHT22;38941;53.254;6.600;2023-04-25T02:49:42;6.30;99.90
51837;DHT22;38941;53.254;6.600;2023-04-25T02:51:45;5.90;99.90
51837;DHT22;38941;53.254;6.600;2023-04-25T02:53:48;6.80;99.90
51837;DHT22;38941;53.254;6.600;2023-04-25T02:55:49;5.90;99.90
51837;DHT22;38941;53.254;6.600;2023-04-25T02:57:51;5.90;99.90
51837;DHT22;38941;53.254;6.600;2023-04-25T02:59:55;5.90;99.90
51837;DHT22;38941;53.254;6.600;2023-04-25T03:02:01;5.90;99.90
51837;DHT22;38941;53.254;6.600;2023-04-25T03:04:03;5.90;99.90
51837;DHT22;38941;53.254;6.600;2023-04-25T03:06:07;5.90;99.90
51837;DHT22;38941;53.254;6.600;2023-04-25T03:08:08;6.00;99.90
51837;DHT22;38941;53.254;6.600;2023-04-25T03:10:09;6.60;99.90
51837;DHT22;38941;53.254;6.600;2023-04-25T03:12:11;5.90;99.90
51837;DHT22;38941;53.254;6.600;2023-04-25T03:14:12;6.90;99.90
51837;DHT22;38941;53.254;6.600;2023-04-25T03:16:14;6.90;99.90
51837;DHT22;38941;53.254;6.600;2023-04-25T03:18:17;5.80;99.90
51837;DHT22;38941;53.254;6.600;2023-04-25T03:20:17;5.80;99.90
51837;DHT22;38941;53.254;6.600;2023-04-25T03:22:19;6.30;99.90
51837;DHT22;38941;53.254;6.600;2023-04-25T03:24:21;5.70;99.90
51837;DHT22;38941;53.254;6.600;2023-04-25T03:26:23;5.60;99.90
51837;DHT22;38941;53.254;6.600;2023-04-25T03:28:25;5.60;99.90
51837;DHT22;38941;53.254;6.600;2023-04-25T03:30:25;5.50;99.90
51837;DHT22;38941;53.254;6.600;2023-04-25T03:32:26;5.40;99.90
51837;DHT22;38941;53.254;6.600;2023-04-25T03:34:29;5.50;99.90
51837;DHT22;38941;53.254;6.600;2023-04-25T03:36:30;5.40;99.90
51837;DHT22;38941;53.254;6.600;2023-04-25T03:38:31;5.30;99.90
51837;DHT22;38941;53.254;6.600;2023-04-25T03:40:32;5.20;99.90
51837;DHT22;38941;53.254;6.600;2023-04-25T03:42:33;5.30;99.90
51837;DHT22;38941;53.254;6.600;2023-04-25T03:44:34;5.20;99.90
51837;DHT22;38941;53.254;6.600;2023-04-25T03:46:36;5.10;99.90
51837;DHT22;38941;53.254;6.600;2023-04-25T03:48:38;5.10;99.90
51837;DHT22;38941;53.254;6.600;2023-04-25T03:50:39;6.40;99.90
51837;DHT22;38941;53.254;6.600;2023-04-25T03:52:40;5.10;99.90
51837;DHT22;38941;53.254;6.600;2023-04-25T03:54:41;5.10;99.90
51837;DHT22;38941;53.254;6.600;2023-04-25T03:56:41;5.10;99.90
51837;DHT22;38941;53.254;6.600;2023-04-25T03:58:44;5.10;99.90
51837;DHT22;38941;53.254;6.600;2023-04-25T04:00:46;5.10;99.90
51837;DHT22;38941;53.254;6.600;2023-04-25T04:02:47;5.10;99.90
51837;DHT22;38941;53.254;6.600;2023-04-25T04:04:49;5.10;99.90
51837;DHT22;38941;53.254;6.600;2023-04-25T04:06:51;5.00;99.90
51837;DHT22;38941;53.254;6.600;2023-04-25T04:08:52;5.00;99.90
51837;DHT22;38941;53.254;6.600;2023-04-25T04:10:54;4.70;99.90
51837;DHT22;38941;53.254;6.600;2023-04-25T04:12:55;4.90;99.90
51837;DHT22;38941;53.254;6.600;2023-04-25T04:14:57;4.80;99.90
51837;DHT22;38941;53.254;6.600;2023-04-25T04:17:00;5.00;99.90
51837;DHT22;38941;53.254;6.600;2023-04-25T04:19:01;4.80;99.90
51837;DHT22;38941;53.254;6.600;2023-04-25T04:21:02;4.80;99.90
51837;DHT22;38941;53.254;6.600;2023-04-25T04:23:04;4.70;99.90
51837;DHT22;38941;53.254;6.600;2023-04-25T04:25:06;4.60;99.90
51837;DHT22;38941;53.254;6.600;2023-04-25T04:27:07;4.60;99.90
51837;DHT22;38941;53.254;6.600;2023-04-25T04:29:09;4.60;99.90
51837;DHT22;38941;53.254;6.600;2023-04-25T04:31:12;4.60;99.90
51837;DHT22;38941;53.254;6.600;2023-04-25T04:33:14;4.60;99.90
51837;DHT22;38941;53.254;6.600;2023-04-25T04:35:22;3.40;99.90
51837;DHT22;38941;53.254;6.600;2023-04-25T04:37:24;5.40;99.90
51837;DHT22;38941;53.254;6.600;2023-04-25T04:39:25;4.50;99.90
51837;DHT22;38941;53.254;6.600;2023-04-25T04:41:28;5.90;99.90
51837;DHT22;38941;53.254;6.600;2023-04-25T04:43:31;4.50;99.90
51837;DHT22;38941;53.254;6.600;2023-04-25T04:45:34;4.50;99.90
51837;DHT22;38941;53.254;6.600;2023-04-25T04:47:36;4.40;99.90
51837;DHT22;38941;53.254;6.600;2023-04-25T04:49:38;4.50;99.90
51837;DHT22;38941;53.254;6.600;2023-04-25T04:51:39;4.90;99.90
51837;DHT22;38941;53.254;6.600;2023-04-25T04:53:41;5.80;99.90
51837;DHT22;38941;53.254;6.600;2023-04-25T04:55:43;4.60;99.90
51837;DHT22;38941;53.254;6.600;2023-04-25T04:57:45;5.00;99.90
51837;DHT22;38941;53.254;6.600;2023-04-25T04:59:46;5.90;99.90
51837;DHT22;38941;53.254;6.600;2023-04-25T05:01:48;4.70;99.90
51837;DHT22;38941;53.254;6.600;2023-04-25T05:03:51;5.10;99.90
51837;DHT22;38941;53.254;6.600;2023-04-25T05:05:53;4.80;99.90
51837;DHT22;38941;53.254;6.600;2023-04-25T05:07:55;4.80;99.90
51837;DHT22;38941;53.254;6.600;2023-04-25T05:09:57;4.80;99.90
51837;DHT22;38941;53.254;6.600;2023-04-25T05:11:58;4.80;99.90
51837;DHT22;38941;53.254;6.600;2023-04-25T05:14:01;6.30;99.90
51837;DHT22;38941;53.254;6.600;2023-04-25T05:16:02;4.90;99.90
51837;DHT22;38941;53.254;6.600;2023-04-25T05:18:05;4.90;99.90
51837;DHT22;38941;53.254;6.600;2023-04-25T05:20:08;6.20;99.90
51837;DHT22;38941;53.254;6.600;2023-04-25T05:22:13;5.00;99.90
51837;DHT22;38941;53.254;6.600;2023-04-25T05:24:14;5.10;99.90
51837;DHT22;38941;53.254;6.600;2023-04-25T05:26:16;5.00;99.90
51837;DHT22;38941;53.254;6.600;2023-04-25T05:28:18;5.00;99.90
51837;DHT22;38941;53.254;6.600;2023-04-25T05:30:20;6.20;99.90
51837;DHT22;38941;53.254;6.600;2023-04-25T05:32:22;5.00;99.90
51837;DHT22;38941;53.254;6.600;2023-04-25T05:34:29;5.00;99.90
51837;DHT22;38941;53.254;6.600;2023-04-25T05:36:31;5.00;99.90
51837;DHT22;38941;53.254;6.600;2023-04-25T05:38:34;5.10;99.90
51837;DHT22;38941;53.254;6.600;2023-04-25T05:40:35;5.20;99.90
51837;DHT22;38941;53.254;6.600;2023-04-25T05:42:36;5.20;99.90
51837;DHT22;38941;53.254;6.600;2023-04-25T05:44:37;6.50;99.90
51837;DHT22;38941;53.254;6.600;2023-04-25T05:46:39;5.20;99.90
51837;DHT22;38941;53.254;6.600;2023-04-25T05:48:40;5.40;99.90
51837;DHT22;38941;53.254;6.600;2023-04-25T05:50:40;6.60;99.90
51837;DHT22;38941;53.254;6.600;2023-04-25T05:52:44;5.30;99.90
51837;DHT22;38941;53.254;6.600;2023-04-25T05:54:46;5.40;99.90
51837;DHT22;38941;53.254;6.600;2023-04-25T05:56:50;5.40;99.90
51837;DHT22;38941;53.254;6.600;2023-04-25T05:58:50;5.40;99.90
51837;DHT22;38941;53.254;6.600;2023-04-25T06:00:51;5.40;99.90
51837;DHT22;38941;53.254;6.600;2023-04-25T06:02:53;5.30;99.90
51837;DHT22;38941;53.254;6.600;2023-04-25T06:04:53;5.40;99.90
51837;DHT22;38941;53.254;6.600;2023-04-25T06:06:55;5.50;99.90
51837;DHT22;38941;53.254;6.600;2023-04-25T06:08:57;5.50;99.90
51837;DHT22;38941;53.254;6.600;2023-04-25T06:10:59;5.60;99.90
51837;DHT22;38941;53.254;6.600;2023-04-25T06:13:00;5.30;99.90
51837;DHT22;38941;53.254;6.600;2023-04-25T06:15:01;5.70;99.90
51837;DHT22;38941;53.254;6.600;2023-04-25T06:17:03;5.00;99.90
51837;DHT22;38941;53.254;6.600;2023-04-25T06:19:08;6.80;99.90
51837;DHT22;38941;53.254;6.600;2023-04-25T06:21:12;5.80;99.90
51837;DHT22;38941;53.254;6.600;2023-04-25T06:23:17;5.90;99.90
51837;DHT22;38941;53.254;6.600;2023-04-25T06:25:22;6.00;99.90
51837;DHT22;38941;53.254;6.600;2023-04-25T06:27:26;6.00;99.90
51837;DHT22;38941;53.254;6.600;2023-04-25T06:29:29;6.20;99.90
51837;DHT22;38941;53.254;6.600;2023-04-25T06:31:30;6.30;99.90
51837;DHT22;38941;53.254;6.600;2023-04-25T06:33:33;7.20;99.90
51837;DHT22;38941;53.254;6.600;2023-04-25T06:35:34;5.40;99.90
51837;DHT22;38941;53.254;6.600;2023-04-25T06:37:35;6.70;99.90
51837;DHT22;38941;53.254;6.600;2023-04-25T06:39:36;6.90;99.90
51837;DHT22;38941;53.254;6.600;2023-04-25T06:41:37;7.10;99.90
51837;DHT22;38941;53.254;6.600;2023-04-25T06:43:40;7.40;99.90
51837;DHT22;38941;53.254;6.600;2023-04-25T06:45:41;7.50;99.90
51837;DHT22;38941;53.254;6.600;2023-04-25T06:47:43;7.70;99.90
51837;DHT22;38941;53.254;6.600;2023-04-25T06:49:45;7.80;99.90
51837;DHT22;38941;53.254;6.600;2023-04-25T06:51:46;7.90;99.90
51837;DHT22;38941;53.254;6.600;2023-04-25T06:53:46;8.10;99.90
51837;DHT22;38941;53.254;6.600;2023-04-25T06:55:47;8.10;99.90
51837;DHT22;38941;53.254;6.600;2023-04-25T06:57:49;8.10;99.90
51837;DHT22;38941;53.254;6.600;2023-04-25T06:59:50;8.00;99.90
51837;DHT22;38941;53.254;6.600;2023-04-25T07:01:51;7.80;99.90
51837;DHT22;38941;53.254;6.600;2023-04-25T07:03:52;7.70;99.90
51837;DHT22;38941;53.254;6.600;2023-04-25T07:05:54;7.60;99.90
51837;DHT22;38941;53.254;6.600;2023-04-25T07:07:55;7.70;99.90
51837;DHT22;38941;53.254;6.600;2023-04-25T07:09:58;7.70;99.90
51837;DHT22;38941;53.254;6.600;2023-04-25T07:12:00;8.00;99.90
51837;DHT22;38941;53.254;6.600;2023-04-25T07:14:03;7.80;99.90
51837;DHT22;38941;53.254;6.600;2023-04-25T07:16:04;7.90;99.90
51837;DHT22;38941;53.254;6.600;2023-04-25T07:18:05;7.70;99.90
51837;DHT22;38941;53.254;6.600;2023-04-25T07:20:06;8.10;99.90
51837;DHT22;38941;53.254;6.600;2023-04-25T07:22:09;8.20;99.90
51837;DHT22;38941;53.254;6.600;2023-04-25T07:24:09;8.30;99.90
51837;DHT22;38941;53.254;6.600;2023-04-25T07:26:10;8.40;99.90
51837;DHT22;38941;53.254;6.600;2023-04-25T07:28:14;8.50;99.90
51837;DHT22;38941;53.254;6.600;2023-04-25T07:30:16;8.60;99.90
51837;DHT22;38941;53.254;6.600;2023-04-25T07:32:19;8.60;99.90
51837;DHT22;38941;53.254;6.600;2023-04-25T07:34:20;8.70;99.90
51837;DHT22;38941;53.254;6.600;2023-04-25T07:36:22;8.70;99.90
51837;DHT22;38941;53.254;6.600;2023-04-25T07:38:23;8.70;99.90
51837;DHT22;38941;53.254;6.600;2023-04-25T07:40:24;8.60;99.90
51837;DHT22;38941;53.254;6.600;2023-04-25T07:42:26;8.60;99.90
51837;DHT22;38941;53.254;6.600;2023-04-25T07:44:27;8.60;99.90
51837;DHT22;38941;53.254;6.600;2023-04-25T07:46:28;8.50;99.90
51837;DHT22;38941;53.254;6.600;2023-04-25T07:48:30;8.50;99.90
51837;DHT22;38941;53.254;6.600;2023-04-25T07:50:31;8.50;99.90
51837;DHT22;38941;53.254;6.600;2023-04-25T07:52:36;8.40;99.90
51837;DHT22;38941;53.254;6.600;2023-04-25T07:54:37;8.50;99.90
51837;DHT22;38941;53.254;6.600;2023-04-25T07:56:38;8.60;99.90
51837;DHT22;38941;53.254;6.600;2023-04-25T07:58:39;8.50;99.90
51837;DHT22;38941;53.254;6.600;2023-04-25T08:00:40;8.70;99.90
51837;DHT22;38941;53.254;6.600;2023-04-25T08:02:42;8.80;99.90
51837;DHT22;38941;53.254;6.600;2023-04-25T08:04:43;9.10;99.90
51837;DHT22;38941;53.254;6.600;2023-04-25T08:06:44;9.40;99.90
51837;DHT22;38941;53.254;6.600;2023-04-25T08:08:48;9.40;99.90
51837;DHT22;38941;53.254;6.600;2023-04-25T08:10:49;9.40;99.90
51837;DHT22;38941;53.254;6.600;2023-04-25T08:12:51;9.10;99.90
51837;DHT22;38941;53.254;6.600;2023-04-25T08:14:52;8.70;99.90
51837;DHT22;38941;53.254;6.600;2023-04-25T08:16:53;8.30;99.90
51837;DHT22;38941;53.254;6.600;2023-04-25T08:18:55;8.00;99.90
51837;DHT22;38941;53.254;6.600;2023-04-25T08:20:58;7.80;99.90
51837;DHT22;38941;53.254;6.600;2023-04-25T08:22:59;8.20;99.90
51837;DHT22;38941;53.254;6.600;2023-04-25T08:25:00;7.50;99.90
51837;DHT22;38941;53.254;6.600;2023-04-25T08:27:02;7.80;99.90
51837;DHT22;38941;53.254;6.600;2023-04-25T08:29:05;7.30;99.90
51837;DHT22;38941;53.254;6.600;2023-04-25T08:31:06;7.20;99.90
51837;DHT22;38941;53.254;6.600;2023-04-25T08:33:07;7.30;99.90
51837;DHT22;38941;53.254;6.600;2023-04-25T08:35:08;7.30;99.90
51837;DHT22;38941;53.254;6.600;2023-04-25T08:37:10;7.50;99.90
51837;DHT22;38941;53.254;6.600;2023-04-25T08:39:11;7.60;99.90
51837;DHT22;38941;53.254;6.600;2023-04-25T08:41:13;7.70;99.90
51837;DHT22;38941;53.254;6.600;2023-04-25T08:43:14;7.80;99.90
51837;DHT22;38941;53.254;6.600;2023-04-25T08:45:15;8.00;99.90
51837;DHT22;38941;53.254;6.600;2023-04-25T08:49:20;7.60;99.90
51837;DHT22;38941;53.254;6.600;2023-04-25T08:51:22;8.60;99.90
51837;DHT22;38941;53.254;6.600;2023-04-25T08:53:32;8.90;99.90
51837;DHT22;38941;53.254;6.600;2023-04-25T08:59:43;9.50;99.90
51837;DHT22;38941;53.254;6.600;2023-04-25T09:01:47;10.40;99.90
51837;DHT22;38941;53.254;6.600;2023-04-25T09:03:50;10.70;99.90
51837;DHT22;38941;53.254;6.600;2023-04-25T09:05:52;11.10;99.90
51837;DHT22;38941;53.254;6.600;2023-04-25T09:07:54;11.50;99.90
51837;DHT22;38941;53.254;6.600;2023-04-25T09:09:57;11.60;99.90
51837;DHT22;38941;53.254;6.600;2023-04-25T09:12:02;11.50;99.90
51837;DHT22;38941;53.254;6.600;2023-04-25T09:14:16;11.30;99.90
51837;DHT22;38941;53.254;6.600;2023-04-25T09:16:17;11.10;99.90
51837;DHT22;38941;53.254;6.600;2023-04-25T09:18:29;11.20;99.90
51837;DHT22;38941;53.254;6.600;2023-04-25T09:20:30;11.60;99.90
51837;DHT22;38941;53.254;6.600;2023-04-25T09:22:32;12.10;99.90
51837;DHT22;38941;53.254;6.600;2023-04-25T09:24:43;12.30;99.90
51837;DHT22;38941;53.254;6.600;2023-04-25T09:26:46;12.20;99.90
51837;DHT22;38941;53.254;6.600;2023-04-25T09:28:48;11.70;99.90
51837;DHT22;38941;53.254;6.600;2023-04-25T09:30:49;11.20;99.90
51837;DHT22;38941;53.254;6.600;2023-04-25T09:32:50;10.80;99.90
51837;DHT22;38941;53.254;6.600;2023-04-25T09:34:57;10.60;99.90
51837;DHT22;38941;53.254;6.600;2023-04-25T09:37:01;9.90;99.90
51837;DHT22;38941;53.254;6.600;2023-04-25T09:39:02;10.50;99.90
51837;DHT22;38941;53.254;6.600;2023-04-25T09:41:05;10.90;99.90
51837;DHT22;38941;53.254;6.600;2023-04-25T09:43:22;11.40;99.90
51837;DHT22;38941;53.254;6.600;2023-04-25T09:45:25;10.70;99.90
51837;DHT22;38941;53.254;6.600;2023-04-25T09:47:27;12.60;99.90
51837;DHT22;38941;53.254;6.600;2023-04-25T09:49:28;13.00;99.90
51837;DHT22;38941;53.254;6.600;2023-04-25T09:51:29;13.30;99.90
51837;DHT22;38941;53.254;6.600;2023-04-25T09:53:30;13.30;99.90
51837;DHT22;38941;53.254;6.600;2023-04-25T09:55:34;13.50;99.90
51837;DHT22;38941;53.254;6.600;2023-04-25T09:57:35;13.90;99.90
51837;DHT22;38941;53.254;6.600;2023-04-25T09:59:54;13.90;99.90
51837;DHT22;38941;53.254;6.600;2023-04-25T10:01:56;13.60;99.90
51837;DHT22;38941;53.254;6.600;2023-04-25T10:03:58;13.50;99.90
51837;DHT22;38941;53.254;6.600;2023-04-25T10:06:00;13.60;99.90
51837;DHT22;38941;53.254;6.600;2023-04-25T10:08:04;13.50;99.90
51837;DHT22;38941;53.254;6.600;2023-04-25T10:10:05;13.60;99.90
51837;DHT22;38941;53.254;6.600;2023-04-25T10:12:07;13.40;99.90
51837;DHT22;38941;53.254;6.600;2023-04-25T10:14:09;12.70;99.90
51837;DHT22;38941;53.254;6.600;2023-04-25T10:16:10;12.20;99.90
51837;DHT22;38941;53.254;6.600;2023-04-25T10:18:11;11.60;99.90
51837;DHT22;38941;53.254;6.600;2023-04-25T10:20:14;10.90;99.90
51837;DHT22;38941;53.254;6.600;2023-04-25T10:22:18;10.80;99.90
51837;DHT22;38941;53.254;6.600;2023-04-25T10:24:21;10.40;99.90
51837;DHT22;38941;53.254;6.600;2023-04-25T10:26:22;10.30;99.90
51837;DHT22;38941;53.254;6.600;2023-04-25T10:28:22;10.20;99.90
51837;DHT22;38941;53.254;6.600;2023-04-25T10:30:23;10.20;99.90
51837;DHT22;38941;53.254;6.600;2023-04-25T10:32:24;10.40;99.90
51837;DHT22;38941;53.254;6.600;2023-04-25T10:34:41;10.80;99.90
51837;DHT22;38941;53.254;6.600;2023-04-25T10:36:42;10.40;99.90
51837;DHT22;38941;53.254;6.600;2023-04-25T10:38:45;12.10;99.90
51837;DHT22;38941;53.254;6.600;2023-04-25T10:41:07;12.70;99.90
51837;DHT22;38941;53.254;6.600;2023-04-25T10:43:39;13.00;99.90
51837;DHT22;38941;53.254;6.600;2023-04-25T10:45:52;12.90;99.90
51837;DHT22;38941;53.254;6.600;2023-04-25T10:47:54;12.70;99.90
51837;DHT22;38941;53.254;6.600;2023-04-25T10:49:55;12.30;99.90
51837;DHT22;38941;53.254;6.600;2023-04-25T10:52:40;11.90;99.90
51837;DHT22;38941;53.254;6.600;2023-04-25T10:56:44;11.40;99.90
51837;DHT22;38941;53.254;6.600;2023-04-25T10:58:45;11.40;99.90
51837;DHT22;38941;53.254;6.600;2023-04-25T11:00:46;11.70;99.90
51837;DHT22;38941;53.254;6.600;2023-04-25T11:02:49;12.10;99.90
51837;DHT22;38941;53.254;6.600;2023-04-25T11:04:53;12.60;99.90
51837;DHT22;38941;53.254;6.600;2023-04-25T11:09:30;13.60;99.90
51837;DHT22;38941;53.254;6.600;2023-04-25T11:11:30;13.90;99.90
51837;DHT22;38941;53.254;6.600;2023-04-25T11:13:33;14.40;99.90
51837;DHT22;38941;53.254;6.600;2023-04-25T11:15:34;14.50;99.90
51837;DHT22;38941;53.254;6.600;2023-04-25T11:17:34;14.50;99.90
51837;DHT22;38941;53.254;6.600;2023-04-25T11:19:36;14.30;99.90
51837;DHT22;38941;53.254;6.600;2023-04-25T11:21:37;14.50;99.90
51837;DHT22;38941;53.254;6.600;2023-04-25T11:23:38;14.60;99.90
51837;DHT22;38941;53.254;6.600;2023-04-25T11:25:39;15.10;99.90
51837;DHT22;38941;53.254;6.600;2023-04-25T11:27:56;15.30;99.90
51837;DHT22;38941;53.254;6.600;2023-04-25T11:29:57;15.50;97.60
51837;DHT22;38941;53.254;6.600;2023-04-25T11:31:58;15.60;99.00
51837;DHT22;38941;53.254;6.600;2023-04-25T11:34:00;15.70;98.20
51837;DHT22;38941;53.254;6.600;2023-04-25T11:36:01;15.80;97.70
51837;DHT22;38941;53.254;6.600;2023-04-25T11:38:02;15.90;97.40
51837;DHT22;38941;53.254;6.600;2023-04-25T11:40:03;16.10;97.30
51837;DHT22;38941;53.254;6.600;2023-04-25T11:42:06;16.20;96.90
51837;DHT22;38941;53.254;6.600;2023-04-25T11:44:07;16.20;96.60
51837;DHT22;38941;53.254;6.600;2023-04-25T11:46:08;15.80;95.70
51837;DHT22;38941;53.254;6.600;2023-04-25T11:48:08;15.80;95.80
51837;DHT22;38941;53.254;6.600;2023-04-25T11:50:10;15.80;95.90
51837;DHT22;38941;53.254;6.600;2023-04-25T11:52:11;15.80;95.30
51837;DHT22;38941;53.254;6.600;2023-04-25T11:54:13;16.00;95.00
51837;DHT22;38941;53.254;6.600;2023-04-25T11:56:14;16.00;94.30
51837;DHT22;38941;53.254;6.600;2023-04-25T11:58:15;15.80;94.30
51837;DHT22;38941;53.254;6.600;2023-04-25T12:00:16;15.90;94.30
51837;DHT22;38941;53.254;6.600;2023-04-25T12:02:24;16.20;94.00
51837;DHT22;38941;53.254;6.600;2023-04-25T12:04:26;16.40;92.80
51837;DHT22;38941;53.254;6.600;2023-04-25T12:06:30;16.60;93.60
51837;DHT22;38941;53.254;6.600;2023-04-25T12:08:31;16.60;92.20
51837;DHT22;38941;53.254;6.600;2023-04-25T12:10:32;16.80;92.50
51837;DHT22;38941;53.254;6.600;2023-04-25T12:12:33;16.70;92.10
51837;DHT22;38941;53.254;6.600;2023-04-25T12:14:35;16.30;91.60
51837;DHT22;38941;53.254;6.600;2023-04-25T12:16:43;15.90;91.40
51837;DHT22;38941;53.254;6.600;2023-04-25T12:18:44;15.50;91.30
51837;DHT22;38941;53.254;6.600;2023-04-25T12:20:45;15.60;91.60
51837;DHT22;38941;53.254;6.600;2023-04-25T12:22:47;15.70;91.20
51837;DHT22;38941;53.254;6.600;2023-04-25T12:24:49;15.10;90.70
51837;DHT22;38941;53.254;6.600;2023-04-25T12:27:04;16.50;91.10
51837;DHT22;38941;53.254;6.600;2023-04-25T12:29:15;16.70;90.50
51837;DHT22;38941;53.254;6.600;2023-04-25T12:31:16;16.60;89.70
51837;DHT22;38941;53.254;6.600;2023-04-25T12:33:17;16.30;90.30
51837;DHT22;38941;53.254;6.600;2023-04-25T12:35:18;15.90;89.20
51837;DHT22;38941;53.254;6.600;2023-04-25T12:37:18;15.70;88.90
51837;DHT22;38941;53.254;6.600;2023-04-25T12:39:24;15.60;88.60
51837;DHT22;38941;53.254;6.600;2023-04-25T12:41:25;15.70;88.30
51837;DHT22;38941;53.254;6.600;2023-04-25T12:43:27;15.50;88.10
51837;DHT22;38941;53.254;6.600;2023-04-25T12:45:28;15.40;87.20
51837;DHT22;38941;53.254;6.600;2023-04-25T12:47:28;15.70;87.80
51837;DHT22;38941;53.254;6.600;2023-04-25T12:49:30;16.10;87.30
51837;DHT22;38941;53.254;6.600;2023-04-25T12:51:31;16.70;87.00
51837;DHT22;38941;53.254;6.600;2023-04-25T12:53:33;16.90;84.40
51837;DHT22;38941;53.254;6.600;2023-04-25T12:55:37;17.20;82.50
51837;DHT22;38941;53.254;6.600;2023-04-25T12:57:38;17.20;81.00
51837;DHT22;38941;53.254;6.600;2023-04-25T12:59:39;17.50;81.20
51837;DHT22;38941;53.254;6.600;2023-04-25T13:01:41;17.50;80.70
51837;DHT22;38941;53.254;6.600;2023-04-25T13:03:42;17.20;79.30
51837;DHT22;38941;53.254;6.600;2023-04-25T13:05:42;16.70;79.70
51837;DHT22;38941;53.254;6.600;2023-04-25T13:07:43;16.40;80.90
51837;DHT22;38941;53.254;6.600;2023-04-25T13:09:44;16.10;82.20
51837;DHT22;38941;53.254;6.600;2023-04-25T13:11:45;16.10;82.70
51837;DHT22;38941;53.254;6.600;2023-04-25T13:13:47;16.20;81.80
51837;DHT22;38941;53.254;6.600;2023-04-25T13:15:49;17.00;80.50
51837;DHT22;38941;53.254;6.600;2023-04-25T13:17:49;16.80;78.10